Time;durP1;ratioP1;P1;durP2;ratioP2;P2;SDS_P1;SDS_P2;PMS_P1;PMS_P2;Temp;Humidity;BMP_temperature;BMP_pressure;BME280_temperature;BME280_humidity;BME280_pressure;Samples;Min_cycle;Max_cycle;Signal;HPM_P1;HPM_P2
2023/10/17 00:01:18;;;;;;;9.90;3.97;;;;;;;-143.29;100.00;62188.47;4976508;28;20026;-91
2023/10/17 00:03:45;;;;;;;7.97;4.28;;;;;;;-143.29;100.00;62188.47;4994082;28;20371;-92
2023/10/17 00:06:17;;;;;;;10.20;4.10;;;;;;;-143.29;100.00;62188.47;4993671;28;20035;-92
2023/10/17 00:08:50;;;;;;;7.65;3.85;;;;;;;-143.29;100.00;62188.47;4993886;28;20050;-92
2023/10/17 00:11:16;;;;;;;7.85;4.63;;;;;;;-143.29;100.00;62188.47;4991815;28;20038;-92
2023/10/17 00:13:45;;;;;;;7.55;3.90;;;;;;;-143.29;100.00;62188.47;4976081;28;20121;-92
2023/10/17 00:16:13;;;;;;;7.22;4.00;;;;;;;-143.29;100.00;62188.47;4993406;28;20022;-91
2023/10/17 00:18:39;;;;;;;6.78;4.13;;;;;;;-143.29;100.00;62188.47;4976058;28;20036;-92
2023/10/17 00:21:25;;;;;;;11.60;4.70;;;;;;;-143.29;100.00;62188.47;4976180;28;20397;-92
2023/10/17 00:23:52;;;;;;;8.10;4.10;;;;;;;-143.29;100.00;62188.47;4993303;28;20536;-91
2023/10/17 00:26:18;;;;;;;7.35;4.07;;;;;;;-143.29;100.00;62188.47;4975340;28;20045;-91
2023/10/17 00:28:49;;;;;;;6.05;4.72;;;;;;;-143.29;100.00;62188.47;4993372;28;20393;-91
2023/10/17 00:31:14;;;;;;;7.05;3.95;;;;;;;-143.29;100.00;62188.47;4993310;28;20162;-90
2023/10/17 00:33:41;;;;;;;9.15;5.05;;;;;;;-143.29;100.00;62188.47;4974321;28;20464;-91
2023/10/17 00:36:14;;;;;;;10.95;4.50;;;;;;;-143.29;100.00;62188.47;4974603;28;20384;-91
2023/10/17 00:38:43;;;;;;;13.43;4.00;;;;;;;-143.29;100.00;62188.47;4993113;28;20507;-90
2023/10/17 00:41:10;;;;;;;9.27;4.57;;;;;;;-143.29;100.00;62188.47;4975531;28;20030;-92
2023/10/17 00:43:37;;;;;;;8.25;4.97;;;;;;;-143.29;100.00;62188.47;4975670;28;20548;-92
2023/10/17 00:46:07;;;;;;;10.43;4.68;;;;;;;-143.29;100.00;62188.47;4992919;28;20022;-92
2023/10/17 00:48:34;;;;;;;9.00;4.65;;;;;;;-143.29;100.00;62188.47;4975736;28;20126;-92
2023/10/17 00:51:08;;;;;;;7.97;3.75;;;;;;;-143.29;100.00;62188.47;4974678;28;20484;-92
2023/10/17 00:53:39;;;;;;;11.45;4.85;;;;;;;-143.29;100.00;62188.47;4975021;28;20443;-91
2023/10/17 00:56:06;;;;;;;4.95;4.20;;;;;;;-143.29;100.00;62188.47;4992833;28;20100;-91
2023/10/17 00:58:31;;;;;;;9.50;4.68;;;;;;;-143.29;100.00;62188.47;4992887;28;20026;-91
2023/10/17 01:03:44;;;;;;;14.52;6.78;;;;;;;-143.29;100.00;62188.47;4992621;28;20552;-92
2023/10/17 01:08:49;;;;;;;11.02;4.93;;;;;;;-143.29;100.00;62188.47;4992684;28;20038;-91
2023/10/17 01:11:22;;;;;;;9.07;4.93;;;;;;;-143.29;100.00;62188.47;4975371;28;20029;-92
2023/10/17 01:13:52;;;;;;;11.55;4.90;;;;;;;-143.29;100.00;62188.47;4992652;28;20053;-93
2023/10/17 01:16:21;;;;;;;8.48;4.70;;;;;;;-143.29;100.00;62188.47;4992853;28;20105;-92
2023/10/17 01:18:47;;;;;;;10.32;5.30;;;;;;;-143.29;100.00;62188.47;4975155;28;20046;-93
2023/10/17 01:21:14;;;;;;;9.50;4.78;;;;;;;-143.29;100.00;62188.47;4991217;28;20068;-92
2023/10/17 01:23:40;;;;;;;15.88;5.38;;;;;;;-143.29;100.00;62188.47;4974996;28;20030;-92
2023/10/17 01:26:08;;;;;;;10.55;5.63;;;;;;;-143.29;100.00;62188.47;4992389;28;20505;-91
2023/10/17 01:28:35;;;;;;;9.43;5.00;;;;;;;-143.29;100.00;62188.47;4992391;28;20022;-91
2023/10/17 01:31:05;;;;;;;12.85;5.13;;;;;;;-143.29;100.00;62188.47;4992374;28;20534;-91
2023/10/17 01:33:30;;;;;;;7.88;5.07;;;;;;;-143.29;100.00;62188.47;4974939;28;20085;-92
2023/10/17 01:35:57;;;;;;;9.10;4.60;;;;;;;-143.29;100.00;62188.47;4991687;28;20038;-92
2023/10/17 01:38:26;;;;;;;12.23;5.13;;;;;;;-143.29;100.00;62188.47;4974943;28;20113;-92
2023/10/17 01:40:53;;;;;;;7.88;5.05;;;;;;;-143.29;100.00;62188.47;4992597;28;20026;-92
2023/10/17 01:43:19;;;;;;;13.57;5.10;;;;;;;-143.29;100.00;62188.47;4975102;28;20030;-92
2023/10/17 01:45:48;;;;;;;9.82;5.00;;;;;;;-143.29;100.00;62188.47;4975025;28;20030;-94
2023/10/17 01:48:13;;;;;;;9.82;5.00;;;;;;;-143.29;100.00;62188.47;4992672;28;20445;-94
2023/10/17 01:50:39;;;;;;;10.40;5.70;;;;;;;-143.29;100.00;62188.47;4973842;28;20068;-91
2023/10/17 01:53:12;;;;;;;19.30;6.32;;;;;;;-143.29;100.00;62188.47;4992280;28;20023;-91
2023/10/17 01:55:39;;;;;;;9.32;5.03;;;;;;;-143.29;100.00;62188.47;4992289;28;20038;-91
2023/10/17 01:58:07;;;;;;;12.13;4.80;;;;;;;-143.29;100.00;62188.47;4974649;28;20099;-91
2023/10/17 02:00:38;;;;;;;12.65;5.50;;;;;;;-143.29;100.00;62188.47;4990560;28;20069;-90
2023/10/17 02:03:05;;;;;;;15.93;5.10;;;;;;;-143.29;100.00;62188.47;4991723;28;20033;-91
2023/10/17 02:05:32;;;;;;;10.20;5.25;;;;;;;-143.29;100.00;62188.47;4969983;28;20085;-91
2023/10/17 02:07:58;;;;;;;10.75;5.32;;;;;;;-143.29;100.00;62188.47;4992270;28;20550;-91
2023/10/17 02:10:25;;;;;;;10.80;5.78;;;;;;;-143.29;100.00;62188.47;4974671;28;20050;-90
2023/10/17 02:12:53;;;;;;;12.13;5.20;;;;;;;-143.29;100.00;62188.47;4974611;28;20053;-91
2023/10/17 02:15:24;;;;;;;8.13;5.00;;;;;;;-143.29;100.00;62188.47;4991459;28;20029;-90
2023/10/17 02:17:51;;;;;;;8.15;4.28;;;;;;;-143.29;100.00;62188.47;4992005;28;20089;-91
2023/10/17 02:20:30;;;;;;;12.15;5.00;;;;;;;-143.29;100.00;62188.47;4991072;28;20026;-91
2023/10/17 02:22:58;;;;;;;10.77;5.30;;;;;;;-143.29;100.00;62188.47;4991764;28;20029;-91
2023/10/17 02:25:28;;;;;;;7.68;4.80;;;;;;;-143.29;100.00;62188.47;4991753;28;20023;-91
2023/10/17 02:27:53;;;;;;;8.13;5.10;;;;;;;-143.29;100.00;62188.47;4974268;28;20023;-91
2023/10/17 02:30:20;;;;;;;11.10;4.65;;;;;;;-143.29;100.00;62188.47;4973734;28;20033;-91
2023/10/17 02:32:52;;;;;;;8.93;4.82;;;;;;;-143.29;100.00;62188.47;4974313;28;20041;-91
2023/10/17 02:35:18;;;;;;;;;;;;;;;-143.29;100.00;62188.47;4994932;28;20027;-91
2023/10/17 02:37:44;;;;;;;14.52;4.28;;;;;;;-143.29;100.00;62188.47;4995264;28;19945;-91
2023/10/17 02:40:23;;;;;;;11.23;5.53;;;;;;;-143.29;100.00;62188.47;4995358;28;20030;-91
2023/10/17 02:42:48;;;;;;;7.50;4.47;;;;;;;-143.29;100.00;62188.47;4995030;28;20128;-90
2023/10/17 02:45:24;;;;;;;9.90;4.78;;;;;;;-143.29;100.00;62188.47;4994697;28;20485;-91
2023/10/17 02:47:54;;;;;;;11.73;5.03;;;;;;;-143.29;100.00;62188.47;4977733;28;20088;-91
2023/10/17 02:52:52;;;;;;;6.95;3.90;;;;;;;-143.29;100.00;62188.47;4995610;28;20030;-91
2023/10/17 02:55:24;;;;;;;7.40;3.92;;;;;;;-143.29;100.00;62188.47;4995032;28;20022;-91
2023/10/17 02:57:52;;;;;;;8.95;3.97;;;;;;;-143.29;100.00;62188.47;4995141;28;20026;-91
2023/10/17 03:00:33;;;;;;;9.80;4.20;;;;;;;-143.29;100.00;62188.47;4976969;28;20088;-90
2023/10/17 03:02:59;;;;;;;8.65;4.15;;;;;;;-143.29;100.00;62188.47;4977530;28;20458;-91
2023/10/17 03:05:29;;;;;;;10.50;3.70;;;;;;;-143.29;100.00;62188.47;4963123;28;20026;-92
2023/10/17 03:07:54;;;;;;;8.13;4.00;;;;;;;-143.29;100.00;62188.47;4978379;28;20027;-91
2023/10/17 03:10:40;;;;;;;13.13;4.53;;;;;;;-143.29;100.00;62188.47;4960499;28;20117;-91
2023/10/17 03:13:22;;;;;;;8.75;4.28;;;;;;;-143.29;100.00;62188.47;4975059;28;20034;-91
2023/10/17 03:15:55;;;;;;;10.50;4.35;;;;;;;-143.29;100.00;62188.47;4973440;28;20191;-92
2023/10/17 03:18:21;;;;;;;9.23;3.95;;;;;;;-143.29;100.00;62188.47;4974960;28;20027;-91
2023/10/17 03:20:53;;;;;;;8.23;4.03;;;;;;;-143.29;100.00;62188.47;4972743;28;20031;-91
2023/10/17 03:23:29;;;;;;;11.10;4.30;;;;;;;-143.29;100.00;62188.47;4976992;28;20026;-91
2023/10/17 03:26:03;;;;;;;13.48;3.83;;;;;;;-143.29;100.00;62188.47;4994435;28;20089;-91
2023/10/17 03:28:33;;;;;;;11.13;3.50;;;;;;;-143.29;100.00;62188.47;4994456;28;20539;-91
2023/10/17 03:30:59;;;;;;;9.93;3.67;;;;;;;-143.29;100.00;62188.47;4993319;28;20381;-93
2023/10/17 03:33:27;;;;;;;8.05;3.60;;;;;;;-143.29;100.00;62188.47;4976766;28;20085;-91
2023/10/17 03:38:30;;;;;;;10.85;3.60;;;;;;;-143.29;100.00;62188.47;4994464;28;20026;-92
2023/10/17 03:41:23;;;;;;;8.30;3.67;;;;;;;-143.29;100.00;62188.47;4976892;28;20030;-91
2023/10/17 03:43:52;;;;;;;9.77;3.85;;;;;;;-143.29;100.00;62188.47;4993673;28;20031;-91
2023/10/17 03:46:25;;;;;;;9.50;4.28;;;;;;;-143.29;100.00;62188.47;4994188;28;20034;-91
2023/10/17 03:48:57;;;;;;;6.43;2.92;;;;;;;-143.29;100.00;62188.47;4992486;28;20026;-91
2023/10/17 03:51:24;;;;;;;13.15;4.35;;;;;;;-143.29;100.00;62188.47;4976545;28;20030;-92
2023/10/17 03:53:49;;;;;;;8.52;3.63;;;;;;;-143.29;100.00;62188.47;4992331;28;20041;-91
2023/10/17 03:56:24;;;;;;;7.13;3.63;;;;;;;-143.29;100.00;62188.47;4976577;28;20031;-92
2023/10/17 03:58:59;;;;;;;14.55;4.53;;;;;;;-143.29;100.00;62188.47;4993746;28;20540;-91
2023/10/17 04:01:26;;;;;;;7.65;3.72;;;;;;;-143.29;100.00;62188.47;4976536;28;20027;-91
2023/10/17 04:03:53;;;;;;;7.07;3.88;;;;;;;-143.29;100.00;62188.47;4976299;28;20030;-92
2023/10/17 04:06:28;;;;;;;9.65;4.20;;;;;;;-143.29;100.00;62188.47;4993962;28;20377;-91
2023/10/17 04:09:17;;;;;;;9.07;3.65;;;;;;;-143.29;100.00;62188.47;4992088;28;20022;-91
2023/10/17 04:11:46;;;;;;;10.10;3.70;;;;;;;-143.29;100.00;62188.47;4993790;28;20050;-91
2023/10/17 04:14:12;;;;;;;13.15;3.80;;;;;;;-143.29;100.00;62188.47;4976160;28;20081;-92
2023/10/17 04:16:39;;;;;;;9.95;3.28;;;;;;;-143.29;100.00;62188.47;4993816;28;20034;-91
2023/10/17 04:19:07;;;;;;;8.75;3.75;;;;;;;-143.29;100.00;62188.47;4976144;28;20086;-92
2023/10/17 04:21:38;;;;;;;8.25;3.47;;;;;;;-143.29;100.00;62188.47;4976426;28;20061;-91
2023/10/17 04:24:07;;;;;;;5.45;3.97;;;;;;;-143.29;100.00;62188.47;4993053;28;20085;-91
2023/10/17 04:26:36;;;;;;;7.50;3.55;;;;;;;-143.29;100.00;62188.47;4993557;28;20034;-92
2023/10/17 04:29:17;;;;;;;14.48;3.78;;;;;;;-143.29;100.00;62188.47;4993500;28;20048;-92
2023/10/17 04:31:47;;;;;;;8.10;3.60;;;;;;;-143.29;100.00;62188.47;4976109;28;20472;-91
2023/10/17 04:34:21;;;;;;;14.60;3.95;;;;;;;-143.29;100.00;62188.47;4993196;28;20113;-92
2023/10/17 04:36:51;;;;;;;13.82;4.57;;;;;;;-143.29;100.00;62188.47;4975940;28;20358;-93
2023/10/17 04:44:25;;;;;;;7.88;3.90;;;;;;;-143.29;100.00;62188.47;4993269;28;20061;-91
2023/10/17 04:49:44;;;;;;;10.57;4.43;;;;;;;-143.29;100.00;62188.47;4984776;28;20034;-92
2023/10/17 04:52:13;;;;;;;8.32;3.65;;;;;;;-143.29;100.00;62188.47;4993167;28;20018;-92
2023/10/17 04:54:41;;;;;;;9.65;4.10;;;;;;;-143.29;100.00;62188.47;4992587;28;20034;-92
2023/10/17 04:57:09;;;;;;;8.93;4.28;;;;;;;-143.29;100.00;62188.47;4991998;28;20033;-91
2023/10/17 04:59:41;;;;;;;7.63;3.80;;;;;;;-143.29;100.00;62188.47;4975576;28;20034;-92
2023/10/17 05:07:28;;;;;;;7.00;4.03;;;;;;;-143.29;100.00;62188.47;4991245;28;20122;-91
2023/10/17 06:18:26;;;;;;;5.70;2.22;;;;;;;-143.29;100.00;62188.47;4996018;28;20072;-91
2023/10/17 06:34:34;;;;;;;5.50;1.30;;;;;;;-143.29;100.00;62188.47;4996108;28;20480;-92
2023/10/17 06:37:07;;;;;;;9.52;1.55;;;;;;;-143.29;100.00;62188.47;4978042;28;20085;-91
2023/10/17 06:39:45;;;;;;;7.95;1.30;;;;;;;-143.29;100.00;62188.47;4976568;28;20022;-91
2023/10/17 06:42:14;;;;;;;4.65;1.27;;;;;;;-143.29;100.00;62188.47;4975884;28;20023;-91
2023/10/17 06:44:52;;;;;;;4.15;1.58;;;;;;;-143.29;100.00;62188.47;4976158;28;20098;-92
2023/10/17 06:47:18;;;;;;;10.85;1.70;;;;;;;-143.29;100.00;62188.47;4975895;28;20543;-91
2023/10/17 06:54:51;;;;;;;5.75;1.27;;;;;;;-143.29;100.00;62188.47;4978585;28;20065;-91
2023/10/17 06:57:19;;;;;;;5.45;1.48;;;;;;;-143.29;100.00;62188.47;4995043;28;20031;-91
2023/10/17 06:59:45;;;;;;;6.82;1.38;;;;;;;-143.29;100.00;62188.47;4977230;28;20045;-92
2023/10/17 07:02:18;;;;;;;4.07;1.15;;;;;;;-143.29;100.00;62188.47;4973777;28;20050;-92
2023/10/17 07:04:49;;;;;;;5.32;1.38;;;;;;;-143.29;100.00;62188.47;4958212;28;20110;-93
2023/10/17 07:07:18;;;;;;;7.38;1.38;;;;;;;-143.29;100.00;62188.47;4956834;28;20117;-94
2023/10/17 07:09:45;;;;;;;4.68;1.48;;;;;;;-143.29;100.00;62188.47;4958584;28;20034;-93
2023/10/17 07:12:13;;;;;;;3.47;1.73;;;;;;;-143.29;100.00;62188.47;4959248;28;20027;-93
2023/10/17 07:14:40;;;;;;;5.15;1.27;;;;;;;-143.29;100.00;62188.47;4977192;28;20030;-93
2023/10/17 07:20:01;;;;;;;3.33;1.20;;;;;;;-143.29;100.00;62188.47;4978592;28;20041;-93
2023/10/17 07:22:35;;;;;;;5.40;1.20;;;;;;;-143.29;100.00;62188.47;4973579;28;20032;-94
2023/10/17 07:25:02;;;;;;;6.13;1.48;;;;;;;-143.29;100.00;62188.47;4975302;28;20023;-92
2023/10/17 07:27:33;;;;;;;5.07;1.20;;;;;;;-143.29;100.00;62188.47;4974394;28;20041;-92
2023/10/17 07:29:59;;;;;;;6.60;1.30;;;;;;;-143.29;100.00;62188.47;4975025;28;20027;-92
2023/10/17 07:32:26;;;;;;;2.28;1.15;;;;;;;-143.29;100.00;62188.47;4957484;28;20126;-92
2023/10/17 07:34:52;;;;;;;6.00;1.67;;;;;;;-143.29;100.00;62188.47;4966070;28;20040;-92
2023/10/17 07:42:40;;;;;;;4.10;1.65;;;;;;;-143.29;100.00;62188.47;4981597;28;20405;-91
2023/10/17 07:45:14;;;;;;;4.03;1.52;;;;;;;-143.29;100.00;62188.47;4968684;28;20058;-94
2023/10/17 07:47:41;;;;;;;3.40;1.05;;;;;;;-143.29;100.00;62188.47;4977004;28;20088;-92
2023/10/17 07:50:12;;;;;;;4.68;1.38;;;;;;;-143.29;100.00;62188.47;4964757;28;20034;-92
2023/10/17 07:52:50;;;;;;;2.42;0.93;;;;;;;-143.29;100.00;62188.47;4979132;28;20015;-92
2023/10/17 07:55:35;;;;;;;7.25;1.77;;;;;;;-143.29;100.00;62188.47;4997845;28;20042;-92
2023/10/17 07:58:07;;;;;;;7.15;1.63;;;;;;;-143.29;100.00;62188.47;4977158;28;20033;-92
2023/10/17 08:00:33;;;;;;;5.63;1.48;;;;;;;-143.29;100.00;62188.47;4986393;28;20088;-93
2023/10/17 08:03:08;;;;;;;4.75;1.40;;;;;;;-143.29;100.00;62188.47;5007626;28;20464;-93
2023/10/17 08:05:45;;;;;;;4.60;1.85;;;;;;;-143.29;100.00;62188.47;5007269;28;20018;-93
2023/10/17 08:08:14;;;;;;;7.28;2.05;;;;;;;-143.29;100.00;62188.47;5008835;28;20049;-92
2023/10/17 08:10:45;;;;;;;7.93;1.80;;;;;;;-143.29;100.00;62188.47;5011283;28;20137;-92
2023/10/17 08:13:11;;;;;;;8.63;1.63;;;;;;;-143.29;100.00;62188.47;4991130;28;20113;-94
2023/10/17 08:18:14;;;;;;;5.90;2.05;;;;;;;-143.29;100.00;62188.47;5008782;28;20026;-89
2023/10/17 08:23:26;;;;;;;6.80;2.20;;;;;;;-143.29;100.00;62188.47;5004783;28;20033;-89
2023/10/17 08:25:59;;;;;;;5.07;1.75;;;;;;;-143.29;100.00;62188.47;5006085;28;20034;-92
2023/10/17 08:28:33;;;;;;;6.50;2.80;;;;;;;-143.29;100.00;62188.47;4988535;28;20060;-91
2023/10/17 08:34:04;;;;;;;6.68;1.63;;;;;;;-143.29;100.00;62188.47;5004941;28;20445;-92
2023/10/17 08:36:53;;;;;;;8.25;1.85;;;;;;;-143.29;100.00;62188.47;4981419;28;20033;-93
2023/10/17 08:39:51;;;;;;;6.10;1.88;;;;;;;-143.29;100.00;62188.47;5007610;28;20069;-90
2023/10/17 08:42:25;;;;;;;6.20;1.90;;;;;;;-143.29;100.00;62188.47;5006439;28;20065;-93
2023/10/17 08:44:53;;;;;;;9.73;2.03;;;;;;;-143.29;100.00;62188.47;5000783;28;20113;-93
2023/10/17 08:47:19;;;;;;;6.50;2.05;;;;;;;-143.29;100.00;62188.47;4998535;28;20038;-93
2023/10/17 08:49:46;;;;;;;9.13;2.58;;;;;;;-143.29;100.00;62188.47;4972672;28;20078;-91
2023/10/17 08:52:27;;;;;;;9.27;2.50;;;;;;;-143.29;100.00;62188.47;4994371;28;20029;-94
2023/10/17 08:54:53;;;;;;;8.85;2.20;;;;;;;-143.29;100.00;62188.47;4979119;28;20052;-94
2023/10/17 08:57:19;;;;;;;4.97;2.00;;;;;;;-143.29;100.00;62188.47;4985418;28;20041;-94
2023/10/17 09:02:16;;;;;;;9.88;2.03;;;;;;;-143.29;100.00;62188.47;5002664;28;20022;-96
2023/10/17 09:04:44;;;;;;;8.50;2.97;;;;;;;-143.29;100.00;62188.47;5002688;28;20034;-94
2023/10/17 09:07:22;;;;;;;8.13;2.08;;;;;;;-143.29;100.00;62188.47;4983483;28;20034;-95
2023/10/17 09:09:54;;;;;;;8.85;2.17;;;;;;;-143.29;100.00;62188.47;4990636;28;20564;-94
2023/10/17 09:12:27;;;;;;;5.88;2.05;;;;;;;-143.29;100.00;62188.47;4989813;28;20038;-95
2023/10/17 09:14:52;;;;;;;5.22;1.85;;;;;;;-143.29;100.00;62188.47;4982692;28;20029;-95
2023/10/17 09:19:53;;;;;;;4.50;2.28;;;;;;;-143.29;100.00;62188.47;5009624;28;20026;-94
2023/10/17 09:22:24;;;;;;;8.23;2.38;;;;;;;-143.29;100.00;62188.47;5005258;28;20084;-95
2023/10/17 09:24:50;;;;;;;7.30;2.33;;;;;;;-143.29;100.00;62188.47;4992777;28;20145;-94
2023/10/17 09:27:18;;;;;;;8.30;2.42;;;;;;;-143.29;100.00;62188.47;4981910;28;20294;-94
2023/10/17 09:29:59;;;;;;;9.40;1.85;;;;;;;-143.29;100.00;62188.47;4989889;28;20141;-93
2023/10/17 09:32:39;;;;;;;5.95;2.10;;;;;;;-143.29;100.00;62188.47;4986890;28;20037;-93
2023/10/17 09:35:13;;;;;;;6.30;2.22;;;;;;;-143.29;100.00;62188.47;4983626;28;20034;-95
2023/10/17 09:37:41;;;;;;;5.65;2.05;;;;;;;-143.29;100.00;62188.47;4981181;28;20452;-94
2023/10/17 09:40:14;;;;;;;7.88;2.15;;;;;;;-143.29;100.00;62188.47;4980739;28;20056;-94
2023/10/17 09:42:41;;;;;;;4.15;1.92;;;;;;;-143.29;100.00;62188.47;4982906;28;20026;-94
2023/10/17 09:45:11;;;;;;;7.57;2.17;;;;;;;-143.29;100.00;62188.47;4990168;28;20037;-94
2023/10/17 09:47:44;;;;;;;6.15;3.03;;;;;;;-143.29;100.00;62188.47;5011013;28;20040;-95
2023/10/17 09:50:21;;;;;;;5.75;1.73;;;;;;;-143.29;100.00;62188.47;4978116;28;20034;-94
2023/10/17 09:52:51;;;;;;;8.88;2.30;;;;;;;-143.29;100.00;62188.47;5001610;28;20092;-94
2023/10/17 09:55:23;;;;;;;7.30;2.08;;;;;;;-143.29;100.00;62188.47;4986383;28;20041;-94
2023/10/17 09:57:52;;;;;;;5.47;2.38;;;;;;;-143.29;100.00;62188.47;5009541;28;20108;-94
2023/10/17 10:00:29;;;;;;;9.38;2.30;;;;;;;-143.29;100.00;62188.47;4992118;28;20117;-94
2023/10/17 10:02:56;;;;;;;5.70;2.08;;;;;;;-143.29;100.00;62188.47;4987217;28;20105;-94
2023/10/17 10:05:28;;;;;;;8.50;2.25;;;;;;;-143.29;100.00;62188.47;4990211;28;20084;-94
2023/10/17 10:07:55;;;;;;;5.88;1.95;;;;;;;-143.29;100.00;62188.47;4986449;28;20026;-95
2023/10/17 10:10:55;;;;;;;6.20;1.95;;;;;;;-143.29;100.00;62188.47;4991569;28;20061;-95
2023/10/17 10:13:21;;;;;;;8.35;2.17;;;;;;;-143.29;100.00;62188.47;4989065;28;20111;-95
2023/10/17 10:16:01;;;;;;;9.88;2.30;;;;;;;-143.29;100.00;62188.47;4994723;28;20523;-94
2023/10/17 10:18:35;;;;;;;5.32;2.30;;;;;;;-143.29;100.00;62188.47;4990437;28;20026;-94
2023/10/17 10:21:04;;;;;;;5.70;1.88;;;;;;;-143.29;100.00;62188.47;4993614;28;20048;-94
2023/10/17 10:23:34;;;;;;;8.27;2.08;;;;;;;-143.29;100.00;62188.47;5008711;28;20128;-94
2023/10/17 10:26:11;;;;;;;2.83;1.73;;;;;;;-143.29;100.00;62188.47;4989187;28;20365;-94
2023/10/17 10:28:41;;;;;;;2.35;1.67;;;;;;;-143.29;100.00;62188.47;4989967;28;20030;-94
2023/10/17 10:31:21;;;;;;;6.22;2.03;;;;;;;-143.29;100.00;62188.47;5009051;28;20340;-94
2023/10/17 10:33:52;;;;;;;7.28;2.28;;;;;;;-143.29;100.00;62188.47;5007188;28;20036;-95
2023/10/17 10:36:24;;;;;;;6.97;1.70;;;;;;;-143.29;100.00;62188.47;4996910;28;20087;-95
2023/10/17 10:38:54;;;;;;;8.02;2.00;;;;;;;-143.29;100.00;62188.47;4979171;28;20026;-95
2023/10/17 10:41:22;;;;;;;8.75;2.30;;;;;;;-143.29;100.00;62188.47;4968994;28;20035;-94
2023/10/17 10:43:48;;;;;;;4.90;1.60;;;;;;;-143.29;100.00;62188.47;4975282;28;20523;-94
2023/10/17 10:46:15;;;;;;;5.78;2.10;;;;;;;-143.29;100.00;62188.47;4975686;28;20050;-94
2023/10/17 10:48:48;;;;;;;8.38;2.47;;;;;;;-143.29;100.00;62188.47;4994294;28;20128;-95
2023/10/17 10:51:15;;;;;;;6.55;1.98;;;;;;;-143.29;100.00;62188.47;4977588;28;20068;-94
2023/10/17 10:53:42;;;;;;;9.07;1.98;;;;;;;-143.29;100.00;62188.47;4968233;28;20489;-94
2023/10/17 10:56:13;;;;;;;7.45;2.30;;;;;;;-143.29;100.00;62188.47;4964659;28;20027;-94
2023/10/17 10:58:47;;;;;;;3.92;1.77;;;;;;;-143.29;100.00;62188.47;4981701;28;20041;-95
2023/10/17 11:01:14;;;;;;;3.38;1.90;;;;;;;-143.29;100.00;62188.47;4976703;28;20485;-96
2023/10/17 11:03:44;;;;;;;7.57;2.15;;;;;;;-143.29;100.00;62188.47;4984649;28;20054;-94
2023/10/17 11:06:10;;;;;;;5.50;2.22;;;;;;;-143.29;100.00;62188.47;4989335;28;20022;-94
2023/10/17 11:08:46;;;;;;;5.80;1.80;;;;;;;-143.29;100.00;62188.47;4995395;28;20381;-94
2023/10/17 11:11:16;;;;;;;6.03;1.98;;;;;;;-143.29;100.00;62188.47;4967110;28;20018;-94
2023/10/17 11:13:49;;;;;;;7.60;2.20;;;;;;;-143.29;100.00;62188.47;4961706;28;20022;-96
2023/10/17 11:16:24;;;;;;;5.45;2.08;;;;;;;-143.29;100.00;62188.47;4975228;28;20034;-94
2023/10/17 11:18:50;;;;;;;4.55;2.03;;;;;;;-143.29;100.00;62188.47;4975849;28;20027;-95
2023/10/17 11:21:20;;;;;;;5.20;1.60;;;;;;;-143.29;100.00;62188.47;4986453;28;20022;-95
2023/10/17 11:23:52;;;;;;;8.93;1.98;;;;;;;-143.29;100.00;62188.47;4965422;28;20497;-94
2023/10/17 11:26:21;;;;;;;8.02;2.45;;;;;;;-143.29;100.00;62188.47;4988614;28;20030;-96
2023/10/17 11:28:47;;;;;;;5.97;2.33;;;;;;;-143.29;100.00;62188.47;4975897;28;20397;-93
2023/10/17 11:31:21;;;;;;;6.55;2.40;;;;;;;-143.29;100.00;62188.47;4971768;28;20030;-94
2023/10/17 11:34:04;;;;;;;4.32;1.85;;;;;;;-143.29;100.00;62188.47;4965749;28;20089;-94
2023/10/17 11:36:37;;;;;;;5.00;1.85;;;;;;;-143.29;100.00;62188.47;4995210;28;20031;-93
2023/10/17 11:39:07;;;;;;;6.35;1.67;;;;;;;-143.29;100.00;62188.47;4995470;28;20477;-94
2023/10/17 11:41:45;;;;;;;8.55;1.80;;;;;;;-143.29;100.00;62188.47;4990654;28;20037;-93
2023/10/17 11:44:12;;;;;;;4.72;1.60;;;;;;;-143.29;100.00;62188.47;4991876;28;20034;-94
2023/10/17 11:46:48;;;;;;;5.80;1.98;;;;;;;-143.29;100.00;62188.47;5000528;28;20056;-92
2023/10/17 11:49:26;;;;;;;9.93;2.45;;;;;;;-143.29;100.00;62188.47;4975911;28;20101;-93
2023/10/17 11:52:05;;;;;;;5.43;2.10;;;;;;;-143.29;100.00;62188.47;4982187;28;20113;-92
2023/10/17 11:54:32;;;;;;;4.30;2.15;;;;;;;-143.29;100.00;62188.47;4973806;28;20054;-96
2023/10/17 11:57:16;;;;;;;9.73;2.10;;;;;;;-143.29;100.00;62188.47;4982527;28;20014;-92
2023/10/17 12:02:47;;;;;;;5.45;1.70;;;;;;;-143.29;100.00;62188.47;4998583;28;20465;-96
2023/10/17 12:05:20;;;;;;;5.43;1.75;;;;;;;-143.29;100.00;62188.47;4974028;28;20068;-95
2023/10/17 12:07:49;;;;;;;4.38;1.50;;;;;;;-143.29;100.00;62188.47;4976887;28;20030;-94
2023/10/17 12:10:15;;;;;;;4.35;2.00;;;;;;;-143.29;100.00;62188.47;4976893;28;20030;-96
2023/10/17 12:12:40;;;;;;;4.22;1.63;;;;;;;-143.29;100.00;62188.47;4976749;28;20023;-93
2023/10/17 12:15:06;;;;;;;7.55;2.10;;;;;;;-143.29;100.00;62188.47;4995494;28;20112;-92
2023/10/17 12:17:32;;;;;;;4.53;1.48;;;;;;;-143.29;100.00;62188.47;5007043;28;20035;-91
2023/10/17 12:19:57;;;;;;;5.90;1.98;;;;;;;-143.29;100.00;62188.47;4971207;28;20623;-94
2023/10/17 12:22:22;;;;;;;8.60;1.90;;;;;;;-143.29;100.00;62188.47;4991056;28;20435;-92
2023/10/17 12:24:48;;;;;;;3.95;1.48;;;;;;;-143.29;100.00;62188.47;4983386;28;20033;-92
2023/10/17 12:27:13;;;;;;;6.07;1.50;;;;;;;-143.29;100.00;62188.47;5012455;28;20034;-93
2023/10/17 12:29:40;;;;;;;7.38;1.67;;;;;;;-143.29;100.00;62188.47;4995556;28;20392;-95
2023/10/17 12:32:05;;;;;;;4.80;1.50;;;;;;;-143.29;100.00;62188.47;4968347;28;20065;-94
2023/10/17 12:34:34;;;;;;;3.17;1.30;;;;;;;-143.29;100.00;62188.47;4984403;28;20062;-91
2023/10/17 12:37:03;;;;;;;4.43;1.40;;;;;;;-143.29;100.00;62188.47;4991981;28;20038;-92
2023/10/17 12:39:31;;;;;;;5.15;1.45;;;;;;;-143.29;100.00;62188.47;4987014;28;20044;-93
2023/10/17 12:41:57;;;;;;;4.35;1.67;;;;;;;-143.29;100.00;62188.47;5000547;28;20037;-96
2023/10/17 12:44:22;;;;;;;3.20;1.10;;;;;;;-143.29;100.00;62188.47;5010649;28;20030;-96
2023/10/17 12:46:47;;;;;;;3.67;1.45;;;;;;;-143.29;100.00;62188.47;5000052;28;20084;-93
2023/10/17 12:49:14;;;;;;;6.45;1.73;;;;;;;-143.29;100.00;62188.47;4975830;28;20026;-94
2023/10/17 12:51:41;;;;;;;2.60;1.10;;;;;;;-143.29;100.00;62188.47;4988327;28;20519;-94
2023/10/17 12:54:07;;;;;;;2.40;0.93;;;;;;;-143.29;100.00;62188.47;4977981;28;20497;-94
2023/10/17 12:56:36;;;;;;;3.38;1.35;;;;;;;-143.29;100.00;62188.47;4991057;28;20057;-93
2023/10/17 12:59:12;;;;;;;3.45;1.10;;;;;;;-143.29;100.00;62188.47;4994971;28;20027;-95
2023/10/17 13:01:39;;;;;;;4.03;1.13;;;;;;;-143.29;100.00;62188.47;4975387;28;20125;-96
2023/10/17 13:04:04;;;;;;;4.68;1.25;;;;;;;-143.29;100.00;62188.47;4980976;28;20043;-96
2023/10/17 13:06:30;;;;;;;8.68;0.95;;;;;;;-143.29;100.00;62188.47;4973845;28;20057;-93
2023/10/17 13:08:59;;;;;;;5.13;1.27;;;;;;;-143.29;100.00;62188.47;4957424;28;20496;-94
2023/10/17 13:11:25;;;;;;;2.83;1.20;;;;;;;-143.29;100.00;62188.47;4971124;28;20062;-95
2023/10/17 13:13:50;;;;;;;6.05;1.67;;;;;;;-143.29;100.00;62188.47;4958984;28;20038;-95
2023/10/17 13:16:16;;;;;;;1.52;0.88;;;;;;;-143.29;100.00;62188.47;4968823;28;20038;-93
2023/10/17 13:18:41;;;;;;;3.28;1.13;;;;;;;-143.29;100.00;62188.47;4957469;28;20088;-94
2023/10/17 13:21:12;;;;;;;7.30;1.55;;;;;;;-143.29;100.00;62188.47;4967073;28;20027;-95
2023/10/17 13:23:58;;;;;;;6.78;1.45;;;;;;;-143.29;100.00;62188.47;4972449;28;20026;-95
2023/10/17 13:26:24;;;;;;;7.40;1.40;;;;;;;-143.29;100.00;62188.47;4964293;28;20027;-95
2023/10/17 13:28:49;;;;;;;8.80;1.27;;;;;;;-143.29;100.00;62188.47;4975716;28;20033;-95
2023/10/17 13:31:16;;;;;;;4.43;1.67;;;;;;;-143.29;100.00;62188.47;4966472;28;20085;-95
2023/10/17 13:33:43;;;;;;;5.63;1.63;;;;;;;-143.29;100.00;62188.47;4971355;28;20031;-95
2023/10/17 13:36:16;;;;;;;5.65;1.10;;;;;;;-143.29;100.00;62188.47;4975515;28;20030;-95
2023/10/17 13:38:41;;;;;;;4.45;1.20;;;;;;;-143.29;100.00;62188.47;4981895;28;20022;-96